createdAt,value
2017-11-24T00:00:18.408Z,97270.68
2017-11-24T00:01:21.169Z,97270.68
2017-11-24T00:02:23.787Z,97271.61
2017-11-24T00:03:26.476Z,97269.66
2017-11-24T00:04:29.006Z,97268.36
2017-11-24T00:05:31.537Z,97264.47
2017-11-24T00:06:34.106Z,97262.23
2017-11-24T00:07:36.636Z,97264.83
2017-11-24T00:08:39.199Z,97258.48
2017-11-24T00:09:41.815Z,97267.06
2017-11-24T00:10:44.490Z,97265.11
2017-11-24T00:11:47.490Z,97261.58
2017-11-24T00:12:50.129Z,97258.48
2017-11-24T00:13:52.849Z,97253.42
2017-11-24T00:14:55.491Z,97242.89
2017-11-24T00:15:58.141Z,97247.03
2017-11-24T00:17:00.894Z,97245.23
2017-11-24T00:18:04.004Z,97252.62
2017-11-24T00:19:06.864Z,97255.73
2017-11-24T00:20:09.511Z,97255.48
2017-11-24T00:21:12.276Z,97255.63
2017-11-24T00:22:14.933Z,97258.33
2017-11-24T00:23:17.762Z,97262.62
2017-11-24T00:24:20.663Z,97257.82
2017-11-24T00:25:23.418Z,97254.18
2017-11-24T00:26:26.129Z,97246.64
2017-11-24T00:27:28.932Z,97248.48
2017-11-24T00:28:31.627Z,97246.64
2017-11-24T00:29:34.335Z,97247.18
2017-11-24T00:30:37.358Z,97245.62
2017-11-24T00:31:40.451Z,97246.78
2017-11-24T00:32:43.092Z,97243.54
2017-11-24T00:33:45.867Z,97241.20
2017-11-24T00:34:48.497Z,97240.83
2017-11-24T00:35:51.130Z,97239.64
2017-11-24T00:36:54.056Z,97236.26
2017-11-24T00:37:56.697Z,97238.60
2017-11-24T00:38:59.312Z,97233.55
2017-11-24T00:40:02.052Z,97240.16
2017-11-24T00:41:04.679Z,97238.75
2017-11-24T00:42:07.383Z,97242.00
2017-11-24T00:43:10.315Z,97244.45
2017-11-24T00:44:12.964Z,97238.86
2017-11-24T00:45:15.626Z,97231.22
2017-11-24T00:46:18.245Z,97221.33
2017-11-24T00:47:20.924Z,97220.81
2017-11-24T00:48:23.555Z,97226.27
2017-11-24T00:49:26.496Z,97230.81
2017-11-24T00:50:29.227Z,97243.03
2017-11-24T00:51:31.995Z,97241.34
2017-11-24T00:52:34.694Z,97245.75
2017-11-24T00:53:37.359Z,97246.27
2017-11-24T00:54:40.995Z,97249.13
2017-11-24T00:55:43.994Z,97244.70
2017-11-24T00:56:46.692Z,97247.30
2017-11-24T00:57:49.855Z,97252.12
2017-11-24T00:58:52.505Z,97250.81
2017-11-24T00:59:55.259Z,97250.42
2017-11-24T01:00:57.899Z,97250.67
2017-11-24T01:02:00.849Z,97247.32
2017-11-24T01:03:03.457Z,97237.19
2017-11-24T01:04:06.103Z,97232.75
2017-11-24T01:05:08.726Z,97234.19
2017-11-24T01:06:11.378Z,97234.45
2017-11-24T01:07:14.006Z,97235.61
2017-11-24T01:08:16.965Z,97235.25
2017-11-24T01:09:19.596Z,97230.30
2017-11-24T01:10:22.244Z,97233.80
2017-11-24T01:11:24.856Z,97235.10
2017-11-24T01:12:27.521Z,97238.21
2017-11-24T01:13:30.116Z,97235.36
2017-11-24T01:14:33.051Z,97233.16
2017-11-24T01:15:35.677Z,97228.22
2017-11-24T01:16:38.367Z,97223.02
2017-11-24T01:17:41.003Z,97230.56
2017-11-24T01:18:43.713Z,97228.88
2017-11-24T01:19:46.454Z,97237.06
2017-11-24T01:20:49.527Z,97227.19
2017-11-24T01:21:52.138Z,97233.42
2017-11-24T01:22:55.119Z,97230.31
2017-11-24T01:23:57.759Z,97232.13
2017-11-24T01:25:00.396Z,97231.08
2017-11-24T01:26:03.027Z,97222.78
2017-11-24T01:27:05.870Z,97223.42
2017-11-24T01:28:08.445Z,97219.02
2017-11-24T01:29:11.007Z,97212.78
2017-11-24T01:30:13.537Z,97211.73
2017-11-24T01:31:16.062Z,97213.43
2017-11-24T01:32:18.547Z,97217.33
2017-11-24T01:33:21.309Z,97215.89
2017-11-24T01:34:23.953Z,97216.03
2017-11-24T01:35:26.451Z,97217.33
2017-11-24T01:36:28.980Z,97214.84
2017-11-24T01:37:31.448Z,97212.25
2017-11-24T01:38:34.086Z,97205.25
2017-11-24T01:39:37.038Z,97209.93
2017-11-24T01:40:39.668Z,97201.61
2017-11-24T01:41:42.348Z,97200.70
2017-11-24T01:42:44.956Z,97200.45
2017-11-24T01:43:47.607Z,97198.49
2017-11-24T01:44:50.263Z,97194.72
2017-11-24T01:45:53.074Z,97195.50
2017-11-24T01:46:55.616Z,97195.00
2017-11-24T01:47:58.261Z,97189.80
2017-11-24T01:49:00.913Z,97181.87
2017-11-24T01:50:03.507Z,97180.57
2017-11-24T01:51:06.096Z,97186.42
2017-11-24T01:52:09.023Z,97183.17
2017-11-24T01:53:11.636Z,97173.19
2017-11-24T01:54:14.301Z,97172.53
2017-11-24T01:55:17.043Z,97162.79
2017-11-24T01:56:19.663Z,97153.05
2017-11-24T01:57:22.292Z,97150.06
2017-11-24T01:58:25.105Z,97156.05
2017-11-24T01:59:27.677Z,97152.27
2017-11-24T02:00:30.311Z,97148.12
2017-11-24T02:01:32.861Z,97158.11
2017-11-24T02:02:35.430Z,97144.88
2017-11-24T02:03:38.000Z,97144.36
2017-11-24T02:04:40.782Z,97132.14
2017-11-24T02:05:43.291Z,97134.63
2017-11-24T02:06:45.794Z,97127.73
2017-11-24T02:07:48.249Z,97130.08
2017-11-24T02:08:50.731Z,97128.50
2017-11-24T02:09:53.221Z,97125.00
2017-11-24T02:10:56.047Z,97124.75
2017-11-24T02:11:58.525Z,97127.99
2017-11-24T02:13:01.080Z,97119.55
2017-11-24T02:14:03.670Z,97123.70
2017-11-24T02:15:06.323Z,97131.23
2017-11-24T02:16:09.086Z,97136.83
2017-11-24T02:17:12.061Z,97134.09
2017-11-24T02:18:14.737Z,97132.53
2017-11-24T02:19:17.394Z,97128.39
2017-11-24T02:20:20.053Z,97128.25
2017-11-24T02:21:22.747Z,97123.95
2017-11-24T02:22:25.407Z,97118.11
2017-11-24T02:23:28.351Z,97113.31
2017-11-24T02:24:30.972Z,97115.52
2017-11-24T02:25:38.913Z,97112.55
2017-11-24T02:26:41.532Z,97103.17
2017-11-24T02:27:44.130Z,97100.97
2017-11-24T02:28:46.741Z,97100.83
2017-11-24T02:29:49.619Z,97100.46
2017-11-24T02:30:52.235Z,97103.95
2017-11-24T02:31:54.813Z,97099.92
2017-11-24T02:32:57.431Z,97104.08
2017-11-24T02:34:00.028Z,97104.06
2017-11-24T02:35:02.715Z,97094.86
2017-11-24T02:36:05.646Z,97094.32
2017-11-24T02:37:08.241Z,97097.20
2017-11-24T02:38:10.878Z,97094.06
2017-11-24T02:39:13.495Z,97093.55
2017-11-24T02:40:16.672Z,97090.56
2017-11-24T02:41:19.570Z,97090.30
2017-11-24T02:42:22.528Z,97090.41
2017-11-24T02:43:25.179Z,97090.55
2017-11-24T02:44:27.803Z,97082.89
2017-11-24T02:45:30.425Z,97083.00
2017-11-24T02:46:33.033Z,97084.80
2017-11-24T02:47:35.748Z,97078.44
2017-11-24T02:48:38.705Z,97074.69
2017-11-24T02:49:41.315Z,97071.03
2017-11-24T02:50:43.963Z,97064.39
2017-11-24T02:51:46.565Z,97066.22
2017-11-24T02:52:49.195Z,97071.13
2017-11-24T02:53:51.825Z,97068.41
2017-11-24T02:54:54.918Z,97067.92
2017-11-24T02:55:57.567Z,97074.57
2017-11-24T02:57:00.188Z,97076.28
2017-11-24T02:58:02.812Z,97071.08
2017-11-24T02:59:05.444Z,97068.05
2017-11-24T03:00:08.209Z,97074.42
2017-11-24T03:01:11.125Z,97075.05
2017-11-24T03:02:13.759Z,97067.26
2017-11-24T03:03:16.423Z,97062.91
2017-11-24T03:04:19.017Z,97066.91
2017-11-24T03:05:21.693Z,97060.27
2017-11-24T03:06:24.328Z,97064.03
2017-11-24T03:07:27.326Z,97065.63
2017-11-24T03:08:29.960Z,97056.36
2017-11-24T03:09:32.600Z,97055.06
2017-11-24T03:10:35.214Z,97064.16
2017-11-24T03:11:37.843Z,97057.16
2017-11-24T03:12:40.488Z,97051.80
2017-11-24T03:13:43.458Z,97042.19
2017-11-24T03:14:46.081Z,97053.21
2017-11-24T03:15:48.730Z,97037.00
2017-11-24T03:16:51.315Z,97043.00
2017-11-24T03:17:53.910Z,97045.47
2017-11-24T03:18:56.610Z,97044.83
2017-11-24T03:19:59.631Z,97031.04
2017-11-24T03:21:02.321Z,97025.85
2017-11-24T03:22:04.936Z,97040.30
2017-11-24T03:23:07.582Z,97056.53
2017-11-24T03:24:10.188Z,97028.36
2017-11-24T03:25:12.808Z,97034.44
2017-11-24T03:26:15.751Z,97034.05
2017-11-24T03:27:18.407Z,97033.42
2017-11-24T03:28:21.059Z,97035.49
2017-11-24T03:29:23.740Z,97041.45
2017-11-24T03:30:26.402Z,97029.56
2017-11-24T03:31:29.084Z,97000.71
2017-11-24T03:32:32.058Z,97014.39
2017-11-24T03:33:34.692Z,97004.72
2017-11-24T03:34:37.368Z,96994.27
2017-11-24T03:35:40.050Z,97003.00
2017-11-24T03:36:42.696Z,96981.92
2017-11-24T03:37:45.304Z,96999.09
2017-11-24T03:38:48.020Z,97004.22
2017-11-24T03:39:50.636Z,97002.39
2017-11-24T03:40:53.301Z,96991.25
2017-11-24T03:41:55.926Z,96993.88
2017-11-24T03:42:58.576Z,96989.50
2017-11-24T03:44:01.512Z,97006.58
2017-11-24T03:45:04.134Z,96989.22
2017-11-24T03:46:06.766Z,97018.50
2017-11-24T03:47:09.375Z,97005.14
2017-11-24T03:48:11.998Z,97006.32
2017-11-24T03:49:14.629Z,96990.03
2017-11-24T03:50:17.558Z,97002.92
2017-11-24T03:51:20.173Z,97013.25
2017-11-24T03:52:22.785Z,97022.22
2017-11-24T03:53:25.415Z,97013.03
2017-11-24T03:54:28.065Z,97009.00
2017-11-24T03:55:30.742Z,97010.33
2017-11-24T03:56:33.717Z,97004.06
2017-11-24T03:57:36.414Z,97019.30
2017-11-24T03:58:39.021Z,97030.31
2017-11-24T03:59:41.672Z,97028.72
2017-11-24T04:00:44.254Z,97009.62
2017-11-24T04:01:46.965Z,97003.16
2017-11-24T04:02:49.585Z,97018.30
2017-11-24T04:03:52.347Z,97026.36
2017-11-24T04:04:55.027Z,97004.70
2017-11-24T04:05:57.715Z,97025.03
2017-11-24T04:07:00.425Z,97020.09
2017-11-24T04:08:03.810Z,96992.70
2017-11-24T04:09:06.609Z,96999.42
2017-11-24T04:10:09.224Z,96970.77
2017-11-24T04:11:11.774Z,96970.37
2017-11-24T04:12:14.360Z,96976.76
2017-11-24T04:13:16.919Z,96970.37
2017-11-24T04:14:19.520Z,96982.48
2017-11-24T04:15:22.664Z,96984.20
2017-11-24T04:16:25.239Z,96971.52
2017-11-24T04:17:27.830Z,96975.19
2017-11-24T04:18:30.427Z,96972.09
2017-11-24T04:19:33.055Z,96966.75
2017-11-24T04:20:35.606Z,96963.73
2017-11-24T04:21:38.602Z,96960.91
2017-11-24T04:22:41.274Z,96964.00
2017-11-24T04:23:43.890Z,96957.61
2017-11-24T04:24:46.524Z,96956.46
2017-11-24T04:25:49.196Z,96974.28
2017-11-24T04:26:51.803Z,96971.16
2017-11-24T04:27:54.782Z,96964.49
2017-11-24T04:28:57.424Z,96961.09
2017-11-24T04:30:00.094Z,96963.61
2017-11-24T04:31:02.759Z,96959.80
2017-11-24T04:32:05.362Z,96960.98
2017-11-24T04:33:07.979Z,96952.53
2017-11-24T04:34:10.944Z,96954.47
2017-11-24T04:35:13.619Z,96941.93
2017-11-24T04:36:16.322Z,96950.78
2017-11-24T04:37:18.977Z,96947.63
2017-11-24T04:38:22.592Z,96946.33
2017-11-24T04:39:25.209Z,96945.75
2017-11-24T04:40:27.837Z,96938.06
2017-11-24T04:41:30.439Z,96957.00
2017-11-24T04:42:33.143Z,96953.33
2017-11-24T04:43:35.794Z,96941.12
2017-11-24T04:44:38.581Z,96939.13
2017-11-24T04:45:41.679Z,96942.25
2017-11-24T04:46:44.394Z,96946.64
2017-11-24T04:47:46.977Z,96953.98
2017-11-24T04:48:49.662Z,96951.73
2017-11-24T04:49:52.293Z,96943.83
2017-11-24T04:50:55.196Z,96959.65
2017-11-24T04:51:57.814Z,96957.70
2017-11-24T04:53:00.477Z,96957.31
2017-11-24T04:54:03.100Z,96950.47
2017-11-24T04:55:05.754Z,96941.86
2017-11-24T04:56:08.359Z,96952.06
2017-11-24T04:57:11.297Z,96981.71
2017-11-24T04:58:13.914Z,96935.09
2017-11-24T04:59:16.645Z,96959.73
2017-11-24T05:15:19.083Z,96974.20
2017-11-24T05:16:21.725Z,96969.05
2017-11-24T05:17:24.488Z,96959.19
2017-11-24T05:18:27.089Z,96993.45
2017-11-24T05:19:29.696Z,96974.77
2017-11-24T05:20:32.709Z,96962.95
2017-11-24T05:21:35.397Z,96956.79
2017-11-24T05:22:38.009Z,96949.06
2017-11-24T05:23:40.618Z,96955.64
2017-11-24T05:24:43.314Z,96943.52
2017-11-24T05:25:45.945Z,96959.16
2017-11-24T05:26:48.874Z,96940.21
2017-11-24T05:27:51.537Z,96926.57
2017-11-24T05:28:54.168Z,96942.37
2017-11-24T05:29:56.832Z,96989.99
2017-11-24T05:30:59.457Z,96943.78
2017-11-24T05:32:02.133Z,96986.42
2017-11-24T05:33:05.132Z,96926.42
2017-11-24T05:34:07.778Z,96958.73
2017-11-24T05:35:10.459Z,96932.30
2017-11-24T05:36:13.488Z,96922.14
2017-11-24T05:37:16.209Z,96923.97
2017-11-24T05:38:18.899Z,96932.37
2017-11-24T05:39:21.866Z,96930.39
2017-11-24T05:40:24.535Z,96946.19
2017-11-24T05:41:27.189Z,96925.12
2017-11-24T05:42:29.881Z,96954.52
2017-11-24T05:43:32.552Z,96941.52
2017-11-24T05:44:35.169Z,96947.30
2017-11-24T05:45:38.258Z,96932.61
2017-11-24T05:46:40.981Z,96928.30
2017-11-24T05:47:43.715Z,96933.45
2017-11-24T05:48:46.315Z,96929.91
2017-11-24T05:49:49.023Z,96939.34
2017-11-24T05:50:51.671Z,96929.58
2017-11-24T05:51:54.665Z,96925.12
2017-11-24T05:52:57.337Z,96933.88
2017-11-24T05:54:00.140Z,96933.12
2017-11-24T05:55:02.867Z,96925.70
2017-11-24T05:56:05.596Z,96891.06
2017-11-24T05:57:08.317Z,96923.27
2017-11-24T05:58:11.333Z,96919.55
2017-11-24T05:59:13.925Z,96925.55
2017-11-24T06:00:17.138Z,96920.00
2017-11-24T06:01:19.902Z,96949.95
2017-11-24T06:02:22.510Z,96924.55
2017-11-24T06:03:25.185Z,96934.34
2017-11-24T06:04:28.124Z,96935.64
2017-11-24T06:05:30.730Z,96944.61
2017-11-24T06:06:33.416Z,96897.59
2017-11-24T06:07:36.054Z,96942.52
2017-11-24T06:08:38.879Z,96927.69
2017-11-24T06:09:41.508Z,96928.00
2017-11-24T06:10:44.451Z,96919.32
2017-11-24T06:11:49.855Z,96911.28
2017-11-24T06:12:52.732Z,96931.69
2017-11-24T06:13:55.629Z,96930.17
2017-11-24T06:14:58.310Z,96918.99
2017-11-24T06:16:01.072Z,96948.64
2017-11-24T06:17:05.292Z,96915.29
2017-11-24T06:18:08.045Z,96938.23
2017-11-24T06:19:10.683Z,96928.84
2017-11-24T06:20:13.355Z,96913.83
2017-11-24T06:21:16.077Z,96925.80
2017-11-24T06:22:18.746Z,96923.78
2017-11-24T06:23:21.686Z,96913.11
2017-11-24T06:24:24.466Z,96925.66
2017-11-24T06:25:27.109Z,96926.02
2017-11-24T06:26:29.884Z,96933.56
2017-11-24T06:27:32.663Z,96945.94
2017-11-24T06:28:35.347Z,96965.39
2017-11-24T06:29:38.324Z,96930.36
2017-11-24T06:30:41.084Z,96941.09
2017-11-24T06:31:43.774Z,96914.48
2017-11-24T06:32:46.504Z,96950.48
2017-11-24T06:33:49.213Z,96935.66
2017-11-24T06:34:51.897Z,96922.11
2017-11-24T06:35:54.783Z,96919.21
2017-11-24T06:36:57.469Z,96953.10
2017-11-24T06:38:00.127Z,96935.91
2017-11-24T06:39:02.902Z,96914.33
2017-11-24T06:40:05.596Z,96908.41
2017-11-24T06:41:08.340Z,96960.61
2017-11-24T06:42:11.361Z,96930.68
2017-11-24T06:43:14.031Z,96924.89
2017-11-24T06:44:16.708Z,96932.52
2017-11-24T06:45:19.598Z,96932.23
2017-11-24T06:46:22.715Z,96931.20
2017-11-24T06:47:25.506Z,96928.14
2017-11-24T06:48:28.600Z,96943.88
2017-11-24T06:49:31.289Z,96937.72
2017-11-24T06:50:33.984Z,96917.95
2017-11-24T06:51:36.597Z,96980.02
2017-11-24T06:52:39.294Z,96929.34
2017-11-24T06:53:42.048Z,96968.01
2017-11-24T06:54:45.198Z,96927.02
2017-11-24T06:55:47.957Z,96942.11
2017-11-24T06:56:50.661Z,96964.27
2017-11-24T06:57:53.307Z,96943.26
2017-11-24T06:58:56.039Z,96948.41
2017-11-24T06:59:58.787Z,96969.41
2017-11-24T07:01:01.580Z,97005.58
2017-11-24T07:02:04.216Z,96918.14
2017-11-24T07:03:06.871Z,96928.13
2017-11-24T07:04:09.722Z,96912.17
2017-11-24T07:05:12.419Z,96896.24
2017-11-24T07:06:15.364Z,96917.34
2017-11-24T07:07:18.128Z,96931.67
2017-11-24T07:08:20.752Z,96943.52
2017-11-24T07:09:23.519Z,96917.28
2017-11-24T07:10:26.160Z,96929.87
2017-11-24T07:11:28.831Z,96963.78
2017-11-24T07:12:31.825Z,96952.64
2017-11-24T07:13:34.569Z,96966.84
2017-11-24T07:14:37.222Z,96941.75
2017-11-24T07:15:39.957Z,96946.33
2017-11-24T07:16:42.714Z,96935.30
2017-11-24T07:17:45.489Z,96956.44
2017-11-24T07:18:48.524Z,96930.56
2017-11-24T07:19:51.265Z,96984.31
2017-11-24T07:20:53.954Z,96948.00
2017-11-24T07:21:56.648Z,96965.50
2017-11-24T07:22:59.336Z,96935.70
2017-11-24T07:24:02.016Z,96957.05
2017-11-24T07:25:05.790Z,96945.59
2017-11-24T07:26:08.890Z,97003.31
2017-11-24T07:27:11.595Z,96932.99
2017-11-24T07:28:14.264Z,96946.47
2017-11-24T07:29:17.885Z,96953.50
2017-11-24T07:30:20.510Z,96951.33
2017-11-24T07:31:23.563Z,96953.06
2017-11-24T07:32:26.330Z,96938.50
2017-11-24T07:33:29.008Z,96935.11
2017-11-24T07:34:31.642Z,96950.48
2017-11-24T07:35:34.367Z,97001.51
2017-11-24T07:36:37.084Z,96952.95
2017-11-24T07:37:40.115Z,96953.45
2017-11-24T07:38:42.923Z,96971.62
2017-11-24T07:39:45.686Z,96956.13
2017-11-24T07:40:48.368Z,96947.67
2017-11-24T07:41:51.027Z,96944.22
2017-11-24T07:42:53.654Z,96972.67
2017-11-24T07:43:56.837Z,96964.30
2017-11-24T07:44:59.466Z,96955.12
2017-11-24T07:46:02.152Z,96991.66
2017-11-24T07:47:04.841Z,96963.06
2017-11-24T07:48:07.450Z,96960.45
2017-11-24T07:49:10.068Z,96953.14
2017-11-24T07:50:12.975Z,96962.77
2017-11-24T07:51:15.675Z,96977.16
2017-11-24T07:52:18.317Z,96958.39
2017-11-24T07:53:20.909Z,96956.76
2017-11-24T07:54:23.531Z,96950.16
2017-11-24T07:55:26.177Z,96952.91
2017-11-24T07:56:29.528Z,96950.39
2017-11-24T07:57:32.242Z,96959.25
2017-11-24T07:58:34.846Z,96951.97
2017-11-24T07:59:37.386Z,96954.75
2017-11-24T08:00:40.089Z,96946.72
2017-11-24T08:01:42.737Z,96965.40
2017-11-24T08:02:45.691Z,96947.39
2017-11-24T08:03:49.166Z,96966.98
2017-11-24T08:04:51.912Z,96961.34
2017-11-24T08:05:54.616Z,96964.89
2017-11-24T08:06:57.284Z,96956.76
2017-11-24T08:07:59.920Z,96963.95
2017-11-24T08:09:02.946Z,96962.30
2017-11-24T08:10:05.600Z,96970.77
2017-11-24T08:11:08.276Z,96972.55
2017-11-24T08:12:10.932Z,96953.14
2017-11-24T08:13:13.665Z,96962.51
2017-11-24T08:14:16.342Z,96972.70
2017-11-24T08:15:19.292Z,97000.09
2017-11-24T08:16:21.914Z,96970.85
2017-11-24T08:17:24.542Z,96966.94
2017-11-24T08:18:27.143Z,96956.45
2017-11-24T08:19:29.794Z,96983.29
2017-11-24T08:20:32.324Z,96991.72
2017-11-24T08:21:35.198Z,96992.98
2017-11-24T08:22:37.754Z,96978.16
2017-11-24T08:23:40.460Z,96949.11
2017-11-24T08:24:43.154Z,96983.17
2017-11-24T08:25:45.908Z,96958.06
2017-11-24T08:26:48.565Z,96975.89
2017-11-24T08:27:51.461Z,96968.46
2017-11-24T08:28:54.089Z,96986.23
2017-11-24T08:29:56.754Z,96990.94
2017-11-24T08:30:59.473Z,96979.34
2017-11-24T08:32:02.165Z,96997.81
2017-11-24T08:33:04.780Z,96984.50
2017-11-24T08:34:08.206Z,97001.06
2017-11-24T08:35:10.833Z,96988.69
2017-11-24T08:36:13.691Z,97005.64
2017-11-24T08:37:16.374Z,97015.52
2017-11-24T08:38:19.021Z,97017.16
2017-11-24T08:39:21.622Z,97004.42
2017-11-24T08:40:24.682Z,96999.55
2017-11-24T08:41:28.287Z,96997.36
2017-11-24T08:42:30.933Z,96987.20
2017-11-24T08:44:35.914Z,96995.54
2017-11-24T08:45:38.610Z,96974.97
2017-11-24T08:46:45.608Z,96970.34
2017-11-24T08:47:52.234Z,96973.70
2017-11-24T08:49:57.332Z,96974.95
2017-11-24T08:50:59.878Z,97004.42
2017-11-24T08:52:02.536Z,96986.95
2017-11-24T08:53:05.402Z,96993.88
2017-11-24T08:54:07.873Z,96994.58
2017-11-24T08:55:10.504Z,96996.39
2017-11-24T08:56:13.049Z,96987.42
2017-11-24T08:57:15.654Z,97007.80
2017-11-24T08:58:18.235Z,97020.73
2017-11-24T08:59:21.171Z,96996.61
2017-11-24T09:00:23.795Z,97011.09
2017-11-24T09:01:26.425Z,97010.12
2017-11-24T09:02:29.060Z,97004.58
2017-11-24T09:03:31.658Z,96990.33
2017-11-24T09:04:34.251Z,96980.41
2017-11-24T09:05:37.225Z,97004.82
2017-11-24T09:06:39.839Z,96999.36
2017-11-24T09:07:42.606Z,97001.97
2017-11-24T09:08:45.265Z,97000.67
2017-11-24T09:09:48.763Z,97008.85
2017-11-24T09:10:51.711Z,97005.06
2017-11-24T09:11:54.757Z,97002.00
2017-11-24T09:12:57.395Z,97012.13
2017-11-24T09:14:00.114Z,97008.37
2017-11-24T09:15:03.448Z,97006.40
2017-11-24T09:16:06.131Z,97011.46
2017-11-24T09:17:08.866Z,97017.20
2017-11-24T09:18:11.945Z,97022.86
2017-11-24T09:19:14.687Z,97008.31
2017-11-24T09:20:17.335Z,97013.13
2017-11-24T09:21:20.032Z,97001.09
2017-11-24T09:22:22.712Z,97027.44
2017-11-24T09:23:25.425Z,97011.25
2017-11-24T09:24:28.092Z,97017.46
2017-11-24T09:25:30.746Z,97026.28
2017-11-24T09:26:33.386Z,97024.09
2017-11-24T09:27:36.058Z,97019.03
2017-11-24T09:28:38.722Z,97011.22
2017-11-24T09:29:41.681Z,97021.37
2017-11-24T09:30:44.352Z,97013.30
2017-11-24T09:31:47.611Z,97025.09
2017-11-24T09:32:50.258Z,97015.90
2017-11-24T09:33:53.347Z,97020.52
2017-11-24T09:34:56.020Z,97017.77
2017-11-24T09:35:59.222Z,97024.61
2017-11-24T09:37:02.646Z,97023.03
2017-11-24T09:38:05.445Z,97024.91
2017-11-24T09:39:08.115Z,97027.63
2017-11-24T09:40:10.770Z,97026.60
2017-11-24T09:41:13.583Z,97038.08
2017-11-24T09:42:16.605Z,97039.51
2017-11-24T09:43:19.305Z,97047.38
2017-11-24T09:44:21.907Z,97043.64
2017-11-24T09:45:24.513Z,97037.66
2017-11-24T09:46:27.260Z,97052.68
2017-11-24T09:47:29.874Z,97054.94
2017-11-24T09:48:32.781Z,97054.41
2017-11-24T09:49:35.400Z,97053.17
2017-11-24T09:50:38.056Z,97045.18
2017-11-24T09:51:40.749Z,97053.77
2017-11-24T09:52:43.392Z,97056.16
2017-11-24T09:53:46.077Z,97055.45
2017-11-24T09:54:49.053Z,97047.64
2017-11-24T09:55:51.830Z,97054.81
2017-11-24T09:56:54.510Z,97060.56
2017-11-24T09:57:57.257Z,97061.61
2017-11-24T09:58:59.939Z,97068.80
2017-11-24T10:00:02.692Z,97066.86
2017-11-24T10:01:05.625Z,97070.53
2017-11-24T10:02:08.301Z,97075.75
2017-11-24T10:03:11.725Z,97080.20
2017-11-24T10:04:14.404Z,97086.34
2017-11-24T10:05:17.103Z,97077.38
2017-11-24T10:06:19.727Z,97087.44
2017-11-24T10:07:22.661Z,97085.62
2017-11-24T10:08:25.386Z,97084.88
2017-11-24T10:09:28.415Z,97078.91
2017-11-24T10:10:31.057Z,97072.80
2017-11-24T10:11:33.824Z,97073.20
2017-11-24T10:12:36.464Z,97072.81
2017-11-24T10:13:39.416Z,97079.46
2017-11-24T10:14:42.115Z,97091.27
2017-11-24T10:15:45.066Z,97078.05
2017-11-24T10:16:47.735Z,97085.08
2017-11-24T10:17:50.430Z,97092.88
2017-11-24T10:18:53.067Z,97094.44
2017-11-24T10:19:56.322Z,97086.90
2017-11-24T10:21:03.031Z,97089.74
2017-11-24T10:23:07.849Z,97089.25
2017-11-24T10:24:10.542Z,97093.80
2017-11-24T10:25:13.261Z,97093.02
2017-11-24T10:26:16.256Z,97092.65
2017-11-24T10:27:18.896Z,97079.91
2017-11-24T10:28:21.646Z,97092.37
2017-11-24T10:29:24.359Z,97089.25
2017-11-24T10:30:27.023Z,97092.50
2017-11-24T10:31:29.631Z,97096.02
2017-11-24T10:32:32.875Z,97100.95
2017-11-24T10:33:35.699Z,97096.14
2017-11-24T10:34:38.346Z,97094.69
2017-11-24T10:35:41.663Z,97092.49
2017-11-24T10:36:44.366Z,97101.84
2017-11-24T10:37:47.290Z,97098.09
2017-11-24T10:38:50.255Z,97111.44
2017-11-24T10:39:53.423Z,97104.19
2017-11-24T10:40:56.540Z,97115.08
2017-11-24T10:41:59.708Z,97115.48
2017-11-24T10:43:02.450Z,97117.98
2017-11-24T10:44:05.215Z,97127.07
2017-11-24T10:45:08.252Z,97127.83
2017-11-24T10:46:10.970Z,97125.38
2017-11-24T10:47:13.678Z,97128.63
2017-11-24T10:48:16.355Z,97123.94
2017-11-24T10:49:19.095Z,97132.92
2017-11-24T10:50:21.873Z,97133.43
2017-11-24T10:55:05.806Z,97139.14
2017-11-24T10:56:08.416Z,97148.52
2017-11-24T10:57:11.102Z,97137.08
2017-11-24T10:58:13.756Z,97141.13
2017-11-24T10:59:16.445Z,97143.83
2017-11-24T11:15:33.823Z,97167.73
2017-11-24T11:16:36.636Z,97171.63
2017-11-24T11:17:39.203Z,97172.15
2017-11-24T11:18:41.740Z,97179.80
2017-11-24T11:19:44.320Z,97183.16
2017-11-24T11:20:47.484Z,97181.63
2017-11-24T11:21:50.181Z,97186.42
2017-11-24T11:22:52.849Z,97183.97
2017-11-24T11:23:55.665Z,97181.23
2017-11-24T11:24:58.643Z,97178.78
2017-11-24T11:26:01.363Z,97180.44
2017-11-24T11:27:04.289Z,97181.73
2017-11-24T11:28:06.942Z,97181.48
2017-11-24T11:29:09.728Z,97175.78
2017-11-24T11:30:12.558Z,97188.62
2017-11-24T11:31:15.520Z,97190.82
2017-11-24T11:32:18.165Z,97189.80
2017-11-24T11:33:21.106Z,97197.06
2017-11-24T11:34:23.873Z,97195.11
2017-11-24T11:35:26.976Z,97196.02
2017-11-24T11:36:29.665Z,97190.94
2017-11-24T11:37:32.384Z,97194.58
2017-11-24T11:38:35.039Z,97199.13
2017-11-24T11:39:38.106Z,97191.98
2017-11-24T11:40:40.710Z,97198.34
2017-11-24T11:41:43.396Z,97194.59
2017-11-24T11:42:46.139Z,97196.16
2017-11-24T11:43:48.817Z,97199.00
2017-11-24T11:44:51.469Z,97202.50
2017-11-24T11:45:54.517Z,97200.31
2017-11-24T11:46:57.154Z,97196.30
2017-11-24T11:47:59.950Z,97194.36
2017-11-24T11:49:02.886Z,97197.20
2017-11-24T11:50:05.818Z,97195.11
2017-11-24T11:51:08.450Z,97203.44
2017-11-24T11:52:11.564Z,97197.59
2017-11-24T11:53:14.662Z,97197.98
2017-11-24T11:54:21.667Z,97200.19
2017-11-24T11:55:24.975Z,97201.34
2017-11-24T11:56:27.609Z,97205.77
2017-11-24T11:57:30.248Z,97205.63
2017-11-24T11:58:33.288Z,97209.38
2017-11-24T11:59:35.940Z,97210.41
2017-11-24T12:00:38.628Z,97210.66
2017-11-24T12:01:41.311Z,97216.91
2017-11-24T12:02:44.096Z,97217.95
2017-11-24T12:03:46.773Z,97222.23
2017-11-24T12:04:49.948Z,97217.80
2017-11-24T12:05:52.529Z,97213.55
2017-11-24T12:06:55.178Z,97221.99
2017-11-24T12:07:57.876Z,97222.00
2017-11-24T12:09:00.544Z,97219.00
2017-11-24T12:10:03.436Z,97214.98
2017-11-24T12:11:06.498Z,97210.95
2017-11-24T12:12:09.233Z,97214.19
2017-11-24T12:13:11.903Z,97211.75
2017-11-24T12:14:14.555Z,97215.49
2017-11-24T12:15:17.224Z,97215.79
2017-11-24T12:16:19.936Z,97214.74
2017-11-24T12:17:22.978Z,97215.91
2017-11-24T12:18:25.585Z,97216.81
2017-11-24T12:19:28.258Z,97218.88
2017-11-24T12:20:31.024Z,97225.37
2017-11-24T12:21:33.678Z,97225.77
2017-11-24T12:22:36.353Z,97216.44
2017-11-24T12:23:39.298Z,97217.98
2017-11-24T12:24:41.946Z,97219.13
2017-11-24T12:25:44.605Z,97223.82
2017-11-24T12:26:47.288Z,97219.27
2017-11-24T12:27:49.911Z,97216.02
2017-11-24T12:28:52.569Z,97215.37
2017-11-24T12:29:55.645Z,97213.42
2017-11-24T12:30:58.336Z,97216.66
2017-11-24T12:32:01.025Z,97220.05
2017-11-24T12:33:03.712Z,97221.06
2017-11-24T12:34:06.461Z,97226.53
2017-11-24T12:35:09.163Z,97224.30
2017-11-24T12:36:12.228Z,97222.88
2017-11-24T12:37:14.890Z,97222.73
2017-11-24T12:38:17.541Z,97227.69
2017-11-24T12:39:20.210Z,97224.30
2017-11-24T12:40:22.917Z,97221.57
2017-11-24T12:41:25.565Z,97222.88
2017-11-24T12:42:28.733Z,97223.93
2017-11-24T12:43:31.471Z,97225.98
2017-11-24T12:44:34.493Z,97234.55
2017-11-24T12:45:37.319Z,97231.03
2017-11-24T12:46:40.098Z,97239.44
2017-11-24T12:47:42.815Z,97241.24
2017-11-24T12:48:46.065Z,97246.35
2017-11-24T12:49:48.721Z,97242.31
2017-11-24T12:50:51.436Z,97237.38
2017-11-24T12:51:54.744Z,97236.98
2017-11-24T12:52:57.436Z,97237.48
2017-11-24T12:54:00.190Z,97236.97